sensor_id;sensor_type;location;lat;lon;timestamp;temperature;humidity
4578;DHT22;2301;47.354;8.528;2023-04-24T00:02:03;16.90;69.10
4578;DHT22;2301;47.354;8.528;2023-04-24T00:04:32;16.90;69.70
4578;DHT22;2301;47.354;8.528;2023-04-24T00:06:59;17.00;69.60
4578;DHT22;2301;47.354;8.528;2023-04-24T00:09:26;16.90;68.50
4578;DHT22;2301;47.354;8.528;2023-04-24T00:11:53;16.90;68.90
4578;DHT22;2301;47.354;8.528;2023-04-24T00:14:22;17.00;69.00
4578;DHT22;2301;47.354;8.528;2023-04-24T00:16:49;16.90;67.40
4578;DHT22;2301;47.354;8.528;2023-04-24T00:19:15;16.90;67.20
4578;DHT22;2301;47.354;8.528;2023-04-24T00:21:43;16.70;66.60
4578;DHT22;2301;47.354;8.528;2023-04-24T00:24:09;16.70;67.10
4578;DHT22;2301;47.354;8.528;2023-04-24T00:26:36;16.70;67.40
4578;DHT22;2301;47.354;8.528;2023-04-24T00:29:03;16.70;67.30
4578;DHT22;2301;47.354;8.528;2023-04-24T00:31:31;16.70;68.40
4578;DHT22;2301;47.354;8.528;2023-04-24T00:34:00;16.60;68.10
4578;DHT22;2301;47.354;8.528;2023-04-24T00:36:27;16.70;67.80
4578;DHT22;2301;47.354;8.528;2023-04-24T00:38:54;16.70;68.00
4578;DHT22;2301;47.354;8.528;2023-04-24T00:41:21;16.60;66.10
4578;DHT22;2301;47.354;8.528;2023-04-24T00:43:48;16.40;66.40
4578;DHT22;2301;47.354;8.528;2023-04-24T00:46:16;16.30;66.40
4578;DHT22;2301;47.354;8.528;2023-04-24T00:48:44;16.30;67.00
4578;DHT22;2301;47.354;8.528;2023-04-24T00:51:11;16.30;68.10
4578;DHT22;2301;47.354;8.528;2023-04-24T00:53:39;16.40;68.40
4578;DHT22;2301;47.354;8.528;2023-04-24T00:56:06;16.40;67.90
4578;DHT22;2301;47.354;8.528;2023-04-24T00:58:33;16.50;67.80
4578;DHT22;2301;47.354;8.528;2023-04-24T01:01:01;16.50;68.30
4578;DHT22;2301;47.354;8.528;2023-04-24T01:03:33;16.50;66.30
4578;DHT22;2301;47.354;8.528;2023-04-24T01:06:04;16.50;67.90
4578;DHT22;2301;47.354;8.528;2023-04-24T01:08:33;16.50;67.50
4578;DHT22;2301;47.354;8.528;2023-04-24T01:11:03;16.40;67.30
4578;DHT22;2301;47.354;8.528;2023-04-24T01:13:31;16.50;67.70
4578;DHT22;2301;47.354;8.528;2023-04-24T01:15:58;16.40;66.30
4578;DHT22;2301;47.354;8.528;2023-04-24T01:18:26;16.40;67.10
4578;DHT22;2301;47.354;8.528;2023-04-24T01:20:55;16.50;68.10
4578;DHT22;2301;47.354;8.528;2023-04-24T01:23:25;16.40;67.50
4578;DHT22;2301;47.354;8.528;2023-04-24T01:25:52;16.40;67.20
4578;DHT22;2301;47.354;8.528;2023-04-24T01:28:19;16.40;67.20
4578;DHT22;2301;47.354;8.528;2023-04-24T01:30:46;16.30;67.00
4578;DHT22;2301;47.354;8.528;2023-04-24T01:33:13;16.10;65.00
4578;DHT22;2301;47.354;8.528;2023-04-24T01:35:40;16.10;68.30
4578;DHT22;2301;47.354;8.528;2023-04-24T01:38:07;16.10;67.70
4578;DHT22;2301;47.354;8.528;2023-04-24T01:40:36;16.00;67.20
4578;DHT22;2301;47.354;8.528;2023-04-24T01:43:03;16.00;66.30
4578;DHT22;2301;47.354;8.528;2023-04-24T01:45:30;16.00;67.20
4578;DHT22;2301;47.354;8.528;2023-04-24T01:47:57;16.00;67.90
4578;DHT22;2301;47.354;8.528;2023-04-24T01:50:25;16.10;68.10
4578;DHT22;2301;47.354;8.528;2023-04-24T01:52:52;16.10;67.30
4578;DHT22;2301;47.354;8.528;2023-04-24T01:55:19;16.10;67.80
4578;DHT22;2301;47.354;8.528;2023-04-24T01:57:50;16.20;68.00
4578;DHT22;2301;47.354;8.528;2023-04-24T02:00:22;16.10;67.20
4578;DHT22;2301;47.354;8.528;2023-04-24T02:02:51;16.20;67.30
4578;DHT22;2301;47.354;8.528;2023-04-24T02:05:18;16.20;67.10
4578;DHT22;2301;47.354;8.528;2023-04-24T02:07:45;16.20;66.80
4578;DHT22;2301;47.354;8.528;2023-04-24T02:10:12;16.10;67.50
4578;DHT22;2301;47.354;8.528;2023-04-24T02:12:39;16.20;67.40
4578;DHT22;2301;47.354;8.528;2023-04-24T02:15:08;16.20;67.30
4578;DHT22;2301;47.354;8.528;2023-04-24T02:17:35;16.30;67.00
4578;DHT22;2301;47.354;8.528;2023-04-24T02:20:03;16.20;66.30
4578;DHT22;2301;47.354;8.528;2023-04-24T02:22:30;16.20;67.30
4578;DHT22;2301;47.354;8.528;2023-04-24T02:24:57;16.30;67.40
4578;DHT22;2301;47.354;8.528;2023-04-24T02:27:24;16.30;66.80
4578;DHT22;2301;47.354;8.528;2023-04-24T02:29:51;16.30;67.30
4578;DHT22;2301;47.354;8.528;2023-04-24T02:32:20;16.20;65.00
4578;DHT22;2301;47.354;8.528;2023-04-24T02:34:47;16.10;66.20
4578;DHT22;2301;47.354;8.528;2023-04-24T02:37:14;15.90;66.90
4578;DHT22;2301;47.354;8.528;2023-04-24T02:39:41;16.10;67.40
4578;DHT22;2301;47.354;8.528;2023-04-24T02:42:08;16.10;66.50
4578;DHT22;2301;47.354;8.528;2023-04-24T02:44:35;16.10;66.80
4578;DHT22;2301;47.354;8.528;2023-04-24T02:47:02;16.00;65.00
4578;DHT22;2301;47.354;8.528;2023-04-24T02:49:30;15.80;65.10
4578;DHT22;2301;47.354;8.528;2023-04-24T02:51:57;15.80;66.40
4578;DHT22;2301;47.354;8.528;2023-04-24T02:54:24;15.90;67.40
4578;DHT22;2301;47.354;8.528;2023-04-24T02:56:51;16.00;67.20
4578;DHT22;2301;47.354;8.528;2023-04-24T02:59:18;15.90;66.30
4578;DHT22;2301;47.354;8.528;2023-04-24T03:01:45;15.90;65.50
4578;DHT22;2301;47.354;8.528;2023-04-24T03:04:12;16.00;66.30
4578;DHT22;2301;47.354;8.528;2023-04-24T03:06:40;15.90;66.30
4578;DHT22;2301;47.354;8.528;2023-04-24T03:09:07;15.90;65.90
4578;DHT22;2301;47.354;8.528;2023-04-24T03:11:34;15.80;65.40
4578;DHT22;2301;47.354;8.528;2023-04-24T03:14:01;15.70;66.00
4578;DHT22;2301;47.354;8.528;2023-04-24T03:16:28;15.80;67.40
4578;DHT22;2301;47.354;8.528;2023-04-24T03:18:55;15.70;65.90
4578;DHT22;2301;47.354;8.528;2023-04-24T03:21:22;15.70;66.20
4578;DHT22;2301;47.354;8.528;2023-04-24T03:23:50;15.50;64.50
4578;DHT22;2301;47.354;8.528;2023-04-24T03:26:17;15.60;66.70
4578;DHT22;2301;47.354;8.528;2023-04-24T03:28:45;15.50;66.40
4578;DHT22;2301;47.354;8.528;2023-04-24T03:31:12;15.50;66.30
4578;DHT22;2301;47.354;8.528;2023-04-24T03:33:38;15.50;65.70
4578;DHT22;2301;47.354;8.528;2023-04-24T03:36:06;15.50;66.70
4578;DHT22;2301;47.354;8.528;2023-04-24T03:38:33;15.60;67.90
4578;DHT22;2301;47.354;8.528;2023-04-24T03:41:01;15.70;68.00
4578;DHT22;2301;47.354;8.528;2023-04-24T03:43:28;15.70;67.20
4578;DHT22;2301;47.354;8.528;2023-04-24T03:45:55;15.60;67.20
4578;DHT22;2301;47.354;8.528;2023-04-24T03:48:22;15.60;67.30
4578;DHT22;2301;47.354;8.528;2023-04-24T03:50:49;15.60;66.40
4578;DHT22;2301;47.354;8.528;2023-04-24T03:53:16;15.60;67.10
4578;DHT22;2301;47.354;8.528;2023-04-24T03:55:43;15.70;67.80
4578;DHT22;2301;47.354;8.528;2023-04-24T03:58:12;15.80;67.80
4578;DHT22;2301;47.354;8.528;2023-04-24T04:00:40;16.00;67.80
4578;DHT22;2301;47.354;8.528;2023-04-24T04:03:07;16.00;68.60
4578;DHT22;2301;47.354;8.528;2023-04-24T04:05:33;16.00;66.90
4578;DHT22;2301;47.354;8.528;2023-04-24T04:08:00;15.90;65.80
4578;DHT22;2301;47.354;8.528;2023-04-24T04:10:27;15.80;65.80
4578;DHT22;2301;47.354;8.528;2023-04-24T04:12:57;15.80;66.80
4578;DHT22;2301;47.354;8.528;2023-04-24T04:15:26;15.90;66.70
4578;DHT22;2301;47.354;8.528;2023-04-24T04:17:52;16.00;66.80
4578;DHT22;2301;47.354;8.528;2023-04-24T04:20:19;15.90;65.00
4578;DHT22;2301;47.354;8.528;2023-04-24T04:22:46;16.00;65.60
4578;DHT22;2301;47.354;8.528;2023-04-24T04:25:13;16.00;66.10
4578;DHT22;2301;47.354;8.528;2023-04-24T04:27:40;15.90;64.10
4578;DHT22;2301;47.354;8.528;2023-04-24T04:30:08;15.90;65.00
4578;DHT22;2301;47.354;8.528;2023-04-24T04:32:36;15.80;63.60
4578;DHT22;2301;47.354;8.528;2023-04-24T04:35:04;15.80;66.80
4578;DHT22;2301;47.354;8.528;2023-04-24T04:37:32;15.80;66.20
4578;DHT22;2301;47.354;8.528;2023-04-24T04:39:59;15.60;64.80
4578;DHT22;2301;47.354;8.528;2023-04-24T04:42:26;15.70;66.30
4578;DHT22;2301;47.354;8.528;2023-04-24T04:44:53;15.80;66.90
4578;DHT22;2301;47.354;8.528;2023-04-24T04:47:22;15.90;66.70
4578;DHT22;2301;47.354;8.528;2023-04-24T04:49:50;15.90;65.80
4578;DHT22;2301;47.354;8.528;2023-04-24T04:52:17;15.80;65.30
4578;DHT22;2301;47.354;8.528;2023-04-24T04:54:44;15.80;66.50
4578;DHT22;2301;47.354;8.528;2023-04-24T04:57:11;15.90;67.10
4578;DHT22;2301;47.354;8.528;2023-04-24T04:59:38;15.90;67.80
4578;DHT22;2301;47.354;8.528;2023-04-24T05:02:06;15.90;66.70
4578;DHT22;2301;47.354;8.528;2023-04-24T05:04:33;16.00;67.10
4578;DHT22;2301;47.354;8.528;2023-04-24T05:07:01;16.00;66.60
4578;DHT22;2301;47.354;8.528;2023-04-24T05:09:28;15.90;66.80
4578;DHT22;2301;47.354;8.528;2023-04-24T05:11:55;15.80;66.20
4578;DHT22;2301;47.354;8.528;2023-04-24T05:14:22;15.70;67.50
4578;DHT22;2301;47.354;8.528;2023-04-24T05:16:49;15.70;67.90
4578;DHT22;2301;47.354;8.528;2023-04-24T05:19:16;15.70;68.50
4578;DHT22;2301;47.354;8.528;2023-04-24T05:21:44;15.70;68.40
4578;DHT22;2301;47.354;8.528;2023-04-24T05:24:12;15.70;68.50
4578;DHT22;2301;47.354;8.528;2023-04-24T05:26:39;15.70;68.00
4578;DHT22;2301;47.354;8.528;2023-04-24T05:29:06;15.60;68.60
4578;DHT22;2301;47.354;8.528;2023-04-24T05:31:33;15.60;69.00
4578;DHT22;2301;47.354;8.528;2023-04-24T05:34:00;15.70;69.30
4578;DHT22;2301;47.354;8.528;2023-04-24T05:36:27;15.80;68.30
4578;DHT22;2301;47.354;8.528;2023-04-24T05:38:54;15.60;67.10
4578;DHT22;2301;47.354;8.528;2023-04-24T05:41:23;15.30;66.80
4578;DHT22;2301;47.354;8.528;2023-04-24T05:43:50;15.10;67.20
4578;DHT22;2301;47.354;8.528;2023-04-24T05:46:17;14.80;67.70
4578;DHT22;2301;47.354;8.528;2023-04-24T05:48:44;14.60;68.10
4578;DHT22;2301;47.354;8.528;2023-04-24T05:51:11;14.30;68.40
4578;DHT22;2301;47.354;8.528;2023-04-24T05:53:38;14.20;68.80
4578;DHT22;2301;47.354;8.528;2023-04-24T05:56:05;14.00;69.30
4578;DHT22;2301;47.354;8.528;2023-04-24T05:58:34;13.90;69.90
4578;DHT22;2301;47.354;8.528;2023-04-24T06:01:01;13.80;70.80
4578;DHT22;2301;47.354;8.528;2023-04-24T06:03:28;13.70;71.40
4578;DHT22;2301;47.354;8.528;2023-04-24T06:05:55;13.70;71.90
4578;DHT22;2301;47.354;8.528;2023-04-24T06:08:22;13.60;72.40
4578;DHT22;2301;47.354;8.528;2023-04-24T06:10:49;13.60;72.30
4578;DHT22;2301;47.354;8.528;2023-04-24T06:13:16;13.50;71.90
4578;DHT22;2301;47.354;8.528;2023-04-24T06:15:45;13.40;72.20
4578;DHT22;2301;47.354;8.528;2023-04-24T06:18:11;13.40;72.80
4578;DHT22;2301;47.354;8.528;2023-04-24T06:20:38;13.40;73.30
4578;DHT22;2301;47.354;8.528;2023-04-24T06:23:05;13.40;73.70
4578;DHT22;2301;47.354;8.528;2023-04-24T06:25:33;13.30;74.00
4578;DHT22;2301;47.354;8.528;2023-04-24T06:27:59;13.30;74.50
4578;DHT22;2301;47.354;8.528;2023-04-24T06:30:27;13.20;74.30
4578;DHT22;2301;47.354;8.528;2023-04-24T06:32:55;13.20;75.50
4578;DHT22;2301;47.354;8.528;2023-04-24T06:35:23;13.30;75.90
4578;DHT22;2301;47.354;8.528;2023-04-24T06:37:50;13.30;75.80
4578;DHT22;2301;47.354;8.528;2023-04-24T06:40:17;13.30;76.00
4578;DHT22;2301;47.354;8.528;2023-04-24T06:42:45;13.30;76.70
4578;DHT22;2301;47.354;8.528;2023-04-24T06:45:12;13.20;75.50
4578;DHT22;2301;47.354;8.528;2023-04-24T06:47:42;13.20;75.80
4578;DHT22;2301;47.354;8.528;2023-04-24T06:50:16;13.20;75.50
4578;DHT22;2301;47.354;8.528;2023-04-24T06:52:45;13.30;76.20
4578;DHT22;2301;47.354;8.528;2023-04-24T06:55:12;13.40;76.00
4578;DHT22;2301;47.354;8.528;2023-04-24T06:57:42;13.60;76.10
4578;DHT22;2301;47.354;8.528;2023-04-24T07:00:10;13.80;75.60
4578;DHT22;2301;47.354;8.528;2023-04-24T07:02:38;13.90;74.50
4578;DHT22;2301;47.354;8.528;2023-04-24T07:05:05;13.80;73.70
4578;DHT22;2301;47.354;8.528;2023-04-24T07:07:35;13.80;73.60
4578;DHT22;2301;47.354;8.528;2023-04-24T07:10:04;13.80;74.10
4578;DHT22;2301;47.354;8.528;2023-04-24T07:12:31;13.80;74.30
4578;DHT22;2301;47.354;8.528;2023-04-24T07:14:58;13.80;74.70
4578;DHT22;2301;47.354;8.528;2023-04-24T07:17:25;13.90;74.70
4578;DHT22;2301;47.354;8.528;2023-04-24T07:19:52;14.20;77.20
4578;DHT22;2301;47.354;8.528;2023-04-24T07:22:19;14.50;76.30
4578;DHT22;2301;47.354;8.528;2023-04-24T07:24:54;14.70;74.70
4578;DHT22;2301;47.354;8.528;2023-04-24T07:27:26;14.80;73.50
4578;DHT22;2301;47.354;8.528;2023-04-24T07:29:57;14.80;72.20
4578;DHT22;2301;47.354;8.528;2023-04-24T07:32:25;14.80;71.90
4578;DHT22;2301;47.354;8.528;2023-04-24T07:34:52;14.80;71.20
4578;DHT22;2301;47.354;8.528;2023-04-24T07:37:19;14.90;70.70
4578;DHT22;2301;47.354;8.528;2023-04-24T07:39:47;15.10;69.90
4578;DHT22;2301;47.354;8.528;2023-04-24T07:42:15;15.10;69.60
4578;DHT22;2301;47.354;8.528;2023-04-24T07:44:42;15.10;69.80
4578;DHT22;2301;47.354;8.528;2023-04-24T07:47:09;15.00;70.00
4578;DHT22;2301;47.354;8.528;2023-04-24T07:49:37;14.90;70.00
4578;DHT22;2301;47.354;8.528;2023-04-24T07:52:04;14.90;70.10
4578;DHT22;2301;47.354;8.528;2023-04-24T07:54:31;14.90;68.80
4578;DHT22;2301;47.354;8.528;2023-04-24T07:56:58;14.90;68.60
4578;DHT22;2301;47.354;8.528;2023-04-24T07:59:27;14.70;68.30
4578;DHT22;2301;47.354;8.528;2023-04-24T08:01:54;14.80;69.00
4578;DHT22;2301;47.354;8.528;2023-04-24T08:04:21;14.80;69.40
4578;DHT22;2301;47.354;8.528;2023-04-24T08:06:48;14.90;69.70
4578;DHT22;2301;47.354;8.528;2023-04-24T08:09:15;15.00;70.00
4578;DHT22;2301;47.354;8.528;2023-04-24T08:11:43;14.80;68.00
4578;DHT22;2301;47.354;8.528;2023-04-24T08:14:10;14.50;65.80
4578;DHT22;2301;47.354;8.528;2023-04-24T08:16:40;14.20;65.60
4578;DHT22;2301;47.354;8.528;2023-04-24T08:19:07;14.10;66.70
4578;DHT22;2301;47.354;8.528;2023-04-24T08:21:34;14.00;66.40
4578;DHT22;2301;47.354;8.528;2023-04-24T08:24:01;13.90;66.80
4578;DHT22;2301;47.354;8.528;2023-04-24T08:26:30;13.80;66.80
4578;DHT22;2301;47.354;8.528;2023-04-24T08:28:57;13.80;67.60
4578;DHT22;2301;47.354;8.528;2023-04-24T08:31:24;13.70;66.80
4578;DHT22;2301;47.354;8.528;2023-04-24T08:33:53;13.70;66.80
4578;DHT22;2301;47.354;8.528;2023-04-24T08:36:20;14.00;67.60
4578;DHT22;2301;47.354;8.528;2023-04-24T08:38:47;14.20;66.80
4578;DHT22;2301;47.354;8.528;2023-04-24T08:41:15;14.40;67.00
4578;DHT22;2301;47.354;8.528;2023-04-24T08:43:42;15.10;66.70
4578;DHT22;2301;47.354;8.528;2023-04-24T08:46:10;15.70;65.30
4578;DHT22;2301;47.354;8.528;2023-04-24T08:48:38;15.70;63.30
4578;DHT22;2301;47.354;8.528;2023-04-24T08:51:08;15.50;62.60
4578;DHT22;2301;47.354;8.528;2023-04-24T08:53:36;15.60;62.90
4578;DHT22;2301;47.354;8.528;2023-04-24T08:56:03;15.90;63.20
4578;DHT22;2301;47.354;8.528;2023-04-24T08:58:31;16.30;62.60
4578;DHT22;2301;47.354;8.528;2023-04-24T09:00:59;16.70;62.40
4578;DHT22;2301;47.354;8.528;2023-04-24T09:03:27;17.20;61.30
4578;DHT22;2301;47.354;8.528;2023-04-24T09:05:55;17.50;59.90
4578;DHT22;2301;47.354;8.528;2023-04-24T09:08:26;18.10;59.90
4578;DHT22;2301;47.354;8.528;2023-04-24T09:10:54;18.40;58.20
4578;DHT22;2301;47.354;8.528;2023-04-24T09:13:23;18.90;56.00
4578;DHT22;2301;47.354;8.528;2023-04-24T09:15:51;19.60;54.90
4578;DHT22;2301;47.354;8.528;2023-04-24T09:18:19;20.10;53.40
4578;DHT22;2301;47.354;8.528;2023-04-24T09:20:59;20.40;52.50
4578;DHT22;2301;47.354;8.528;2023-04-24T09:23:30;20.10;51.30
4578;DHT22;2301;47.354;8.528;2023-04-24T09:25:58;19.40;51.40
4578;DHT22;2301;47.354;8.528;2023-04-24T09:28:30;18.90;52.20
4578;DHT22;2301;47.354;8.528;2023-04-24T09:31:05;18.30;52.80
4578;DHT22;2301;47.354;8.528;2023-04-24T09:33:32;17.90;54.20
4578;DHT22;2301;47.354;8.528;2023-04-24T09:35:59;17.70;55.00
4578;DHT22;2301;47.354;8.528;2023-04-24T09:38:35;17.40;55.00
4578;DHT22;2301;47.354;8.528;2023-04-24T09:41:03;17.20;54.00
4578;DHT22;2301;47.354;8.528;2023-04-24T09:43:31;16.80;54.20
4578;DHT22;2301;47.354;8.528;2023-04-24T09:46:05;16.50;54.40
4578;DHT22;2301;47.354;8.528;2023-04-24T09:48:33;16.20;54.80
4578;DHT22;2301;47.354;8.528;2023-04-24T09:51:01;17.00;55.80
4578;DHT22;2301;47.354;8.528;2023-04-24T09:53:29;17.90;54.20
4578;DHT22;2301;47.354;8.528;2023-04-24T09:56:02;18.70;53.00
4578;DHT22;2301;47.354;8.528;2023-04-24T09:58:29;19.10;51.90
4578;DHT22;2301;47.354;8.528;2023-04-24T10:00:57;19.40;51.60
4578;DHT22;2301;47.354;8.528;2023-04-24T10:03:24;19.70;51.70
4578;DHT22;2301;47.354;8.528;2023-04-24T10:05:54;20.00;50.50
4578;DHT22;2301;47.354;8.528;2023-04-24T10:08:24;19.70;49.90
4578;DHT22;2301;47.354;8.528;2023-04-24T10:10:53;19.30;50.70
4578;DHT22;2301;47.354;8.528;2023-04-24T10:13:21;18.90;50.20
4578;DHT22;2301;47.354;8.528;2023-04-24T10:15:49;18.90;49.30
4578;DHT22;2301;47.354;8.528;2023-04-24T10:18:16;18.30;49.50
4578;DHT22;2301;47.354;8.528;2023-04-24T10:20:44;18.50;50.40
4578;DHT22;2301;47.354;8.528;2023-04-24T10:23:12;19.20;50.90
4578;DHT22;2301;47.354;8.528;2023-04-24T10:25:39;19.10;49.50
4578;DHT22;2301;47.354;8.528;2023-04-24T10:28:07;19.00;49.10
4578;DHT22;2301;47.354;8.528;2023-04-24T10:30:37;18.70;49.40
4578;DHT22;2301;47.354;8.528;2023-04-24T10:33:07;18.30;49.80
4578;DHT22;2301;47.354;8.528;2023-04-24T10:35:37;18.20;50.50
4578;DHT22;2301;47.354;8.528;2023-04-24T10:38:07;18.20;50.90
4578;DHT22;2301;47.354;8.528;2023-04-24T10:40:36;18.00;50.90
4578;DHT22;2301;47.354;8.528;2023-04-24T10:43:04;17.80;50.70
4578;DHT22;2301;47.354;8.528;2023-04-24T10:45:31;17.60;50.10
4578;DHT22;2301;47.354;8.528;2023-04-24T10:48:02;17.40;49.60
4578;DHT22;2301;47.354;8.528;2023-04-24T10:50:42;17.10;49.40
4578;DHT22;2301;47.354;8.528;2023-04-24T10:53:13;17.00;49.50
4578;DHT22;2301;47.354;8.528;2023-04-24T10:55:42;16.90;50.40
4578;DHT22;2301;47.354;8.528;2023-04-24T10:58:10;16.80;50.60
4578;DHT22;2301;47.354;8.528;2023-04-24T11:00:38;16.80;50.70
4578;DHT22;2301;47.354;8.528;2023-04-24T11:03:09;16.70;50.70
4578;DHT22;2301;47.354;8.528;2023-04-24T11:06:06;16.50;51.00
4578;DHT22;2301;47.354;8.528;2023-04-24T11:08:38;16.40;51.00
4578;DHT22;2301;47.354;8.528;2023-04-24T11:11:09;16.40;51.50
4578;DHT22;2301;47.354;8.528;2023-04-24T11:14:01;16.30;51.10
4578;DHT22;2301;47.354;8.528;2023-04-24T11:16:30;16.50;51.30
4578;DHT22;2301;47.354;8.528;2023-04-24T11:19:04;16.50;51.30
4578;DHT22;2301;47.354;8.528;2023-04-24T11:21:38;16.40;50.80
4578;DHT22;2301;47.354;8.528;2023-04-24T11:24:31;16.30;51.70
4578;DHT22;2301;47.354;8.528;2023-04-24T11:27:01;16.30;52.30
4578;DHT22;2301;47.354;8.528;2023-04-24T11:29:47;16.20;52.90
4578;DHT22;2301;47.354;8.528;2023-04-24T11:32:19;16.30;53.00
4578;DHT22;2301;47.354;8.528;2023-04-24T11:34:50;16.30;52.70
4578;DHT22;2301;47.354;8.528;2023-04-24T11:37:17;16.30;52.50
4578;DHT22;2301;47.354;8.528;2023-04-24T11:39:44;16.20;52.70
4578;DHT22;2301;47.354;8.528;2023-04-24T11:42:14;16.10;52.80
4578;DHT22;2301;47.354;8.528;2023-04-24T11:44:42;16.10;52.90
4578;DHT22;2301;47.354;8.528;2023-04-24T11:47:10;16.10;52.80
4578;DHT22;2301;47.354;8.528;2023-04-24T11:49:37;16.10;52.20
4578;DHT22;2301;47.354;8.528;2023-04-24T11:52:05;16.10;52.20
4578;DHT22;2301;47.354;8.528;2023-04-24T11:54:32;16.20;52.30
4578;DHT22;2301;47.354;8.528;2023-04-24T11:57:04;16.30;53.90
4578;DHT22;2301;47.354;8.528;2023-04-24T11:59:35;16.40;55.30
4578;DHT22;2301;47.354;8.528;2023-04-24T12:02:03;16.70;56.50
4578;DHT22;2301;47.354;8.528;2023-04-24T12:04:38;16.90;56.10
4578;DHT22;2301;47.354;8.528;2023-04-24T12:07:09;16.80;53.10
4578;DHT22;2301;47.354;8.528;2023-04-24T12:09:43;16.80;53.10
4578;DHT22;2301;47.354;8.528;2023-04-24T12:12:11;16.60;51.70
4578;DHT22;2301;47.354;8.528;2023-04-24T12:14:48;16.60;52.70
4578;DHT22;2301;47.354;8.528;2023-04-24T12:17:16;16.50;53.80
4578;DHT22;2301;47.354;8.528;2023-04-24T12:19:47;16.50;54.10
4578;DHT22;2301;47.354;8.528;2023-04-24T12:22:16;16.60;53.90
4578;DHT22;2301;47.354;8.528;2023-04-24T12:24:56;16.70;54.40
4578;DHT22;2301;47.354;8.528;2023-04-24T12:27:24;16.90;54.20
4578;DHT22;2301;47.354;8.528;2023-04-24T12:29:55;16.90;54.00
4578;DHT22;2301;47.354;8.528;2023-04-24T12:32:23;16.90;54.00
4578;DHT22;2301;47.354;8.528;2023-04-24T12:34:51;16.80;53.30
4578;DHT22;2301;47.354;8.528;2023-04-24T12:37:20;16.60;53.80
4578;DHT22;2301;47.354;8.528;2023-04-24T12:39:59;16.70;55.20
4578;DHT22;2301;47.354;8.528;2023-04-24T12:42:27;16.90;54.60
4578;DHT22;2301;47.354;8.528;2023-04-24T12:44:57;16.80;54.20
4578;DHT22;2301;47.354;8.528;2023-04-24T12:47:25;16.80;54.40
4578;DHT22;2301;47.354;8.528;2023-04-24T12:49:52;16.80;54.20
4578;DHT22;2301;47.354;8.528;2023-04-24T12:52:25;16.70;53.50
4578;DHT22;2301;47.354;8.528;2023-04-24T12:54:53;16.80;53.30
4578;DHT22;2301;47.354;8.528;2023-04-24T12:57:29;16.80;52.50
4578;DHT22;2301;47.354;8.528;2023-04-24T12:59:58;16.90;52.70
4578;DHT22;2301;47.354;8.528;2023-04-24T13:02:26;17.00;52.20
4578;DHT22;2301;47.354;8.528;2023-04-24T13:04:54;17.10;52.20
4578;DHT22;2301;47.354;8.528;2023-04-24T13:07:23;17.20;51.50
4578;DHT22;2301;47.354;8.528;2023-04-24T13:09:51;17.40;51.60
4578;DHT22;2301;47.354;8.528;2023-04-24T13:12:18;17.50;51.40
4578;DHT22;2301;47.354;8.528;2023-04-24T13:14:46;17.50;50.80
4578;DHT22;2301;47.354;8.528;2023-04-24T13:17:13;17.50;50.40
4578;DHT22;2301;47.354;8.528;2023-04-24T13:19:41;17.40;49.60
4578;DHT22;2301;47.354;8.528;2023-04-24T13:22:09;17.30;50.70
4578;DHT22;2301;47.354;8.528;2023-04-24T13:24:39;17.20;50.00
4578;DHT22;2301;47.354;8.528;2023-04-24T13:27:07;17.20;50.00
4578;DHT22;2301;47.354;8.528;2023-04-24T13:29:34;17.20;49.60
4578;DHT22;2301;47.354;8.528;2023-04-24T13:32:02;17.20;49.70
4578;DHT22;2301;47.354;8.528;2023-04-24T13:34:29;17.20;49.70
4578;DHT22;2301;47.354;8.528;2023-04-24T13:36:57;17.20;49.60
4578;DHT22;2301;47.354;8.528;2023-04-24T13:39:25;17.20;49.30
4578;DHT22;2301;47.354;8.528;2023-04-24T13:41:53;17.10;49.20
4578;DHT22;2301;47.354;8.528;2023-04-24T13:44:21;17.10;49.40
4578;DHT22;2301;47.354;8.528;2023-04-24T13:46:51;17.00;49.50
4578;DHT22;2301;47.354;8.528;2023-04-24T13:49:19;16.90;50.40
4578;DHT22;2301;47.354;8.528;2023-04-24T13:51:47;16.80;49.50
4578;DHT22;2301;47.354;8.528;2023-04-24T13:54:14;16.60;50.00
4578;DHT22;2301;47.354;8.528;2023-04-24T13:56:41;16.50;50.90
4578;DHT22;2301;47.354;8.528;2023-04-24T13:59:11;16.40;51.30
4578;DHT22;2301;47.354;8.528;2023-04-24T14:01:38;16.50;51.70
4578;DHT22;2301;47.354;8.528;2023-04-24T14:04:05;16.50;51.90
4578;DHT22;2301;47.354;8.528;2023-04-24T14:06:32;16.50;51.90
4578;DHT22;2301;47.354;8.528;2023-04-24T14:08:59;16.40;51.90
4578;DHT22;2301;47.354;8.528;2023-04-24T14:11:26;16.40;52.30
4578;DHT22;2301;47.354;8.528;2023-04-24T14:13:54;16.40;52.40
4578;DHT22;2301;47.354;8.528;2023-04-24T14:16:23;16.30;52.60
4578;DHT22;2301;47.354;8.528;2023-04-24T14:18:50;16.20;53.90
4578;DHT22;2301;47.354;8.528;2023-04-24T14:21:18;16.10;55.20
4578;DHT22;2301;47.354;8.528;2023-04-24T14:23:45;15.90;55.50
4578;DHT22;2301;47.354;8.528;2023-04-24T14:26:12;15.80;56.20
4578;DHT22;2301;47.354;8.528;2023-04-24T14:28:39;15.80;57.10
4578;DHT22;2301;47.354;8.528;2023-04-24T14:31:06;15.70;56.80
4578;DHT22;2301;47.354;8.528;2023-04-24T14:33:35;15.70;56.60
4578;DHT22;2301;47.354;8.528;2023-04-24T14:36:01;15.70;57.70
4578;DHT22;2301;47.354;8.528;2023-04-24T14:38:30;15.70;58.50
4578;DHT22;2301;47.354;8.528;2023-04-24T14:40:58;15.80;59.60
4578;DHT22;2301;47.354;8.528;2023-04-24T14:43:25;16.00;59.70
4578;DHT22;2301;47.354;8.528;2023-04-24T14:45:52;16.10;59.30
4578;DHT22;2301;47.354;8.528;2023-04-24T14:48:18;16.30;59.20
4578;DHT22;2301;47.354;8.528;2023-04-24T14:50:49;16.30;58.90
4578;DHT22;2301;47.354;8.528;2023-04-24T14:53:21;16.40;58.40
4578;DHT22;2301;47.354;8.528;2023-04-24T14:55:51;16.50;57.80
4578;DHT22;2301;47.354;8.528;2023-04-24T14:58:23;16.60;57.90
4578;DHT22;2301;47.354;8.528;2023-04-24T15:00:52;16.60;57.90
4578;DHT22;2301;47.354;8.528;2023-04-24T15:03:20;16.60;57.30
4578;DHT22;2301;47.354;8.528;2023-04-24T15:05:48;16.60;57.00
4578;DHT22;2301;47.354;8.528;2023-04-24T15:08:16;16.60;56.50
4578;DHT22;2301;47.354;8.528;2023-04-24T15:10:43;16.50;56.30
4578;DHT22;2301;47.354;8.528;2023-04-24T15:13:10;16.50;56.10
4578;DHT22;2301;47.354;8.528;2023-04-24T15:15:37;16.60;56.10
4578;DHT22;2301;47.354;8.528;2023-04-24T15:18:05;16.60;55.40
4578;DHT22;2301;47.354;8.528;2023-04-24T15:20:33;16.70;55.00
4578;DHT22;2301;47.354;8.528;2023-04-24T15:23:02;16.80;55.40
4578;DHT22;2301;47.354;8.528;2023-04-24T15:25:29;16.90;55.50
4578;DHT22;2301;47.354;8.528;2023-04-24T15:27:57;17.00;55.30
4578;DHT22;2301;47.354;8.528;2023-04-24T15:30:26;17.10;55.20
4578;DHT22;2301;47.354;8.528;2023-04-24T15:32:56;17.20;54.90
4578;DHT22;2301;47.354;8.528;2023-04-24T15:35:25;17.30;54.40
4578;DHT22;2301;47.354;8.528;2023-04-24T15:37:52;17.40;54.20
4578;DHT22;2301;47.354;8.528;2023-04-24T15:40:21;17.30;52.90
4578;DHT22;2301;47.354;8.528;2023-04-24T15:42:48;17.20;52.50
4578;DHT22;2301;47.354;8.528;2023-04-24T15:45:15;17.10;52.50
4578;DHT22;2301;47.354;8.528;2023-04-24T15:47:44;17.10;52.70
4578;DHT22;2301;47.354;8.528;2023-04-24T15:50:11;17.00;52.10
4578;DHT22;2301;47.354;8.528;2023-04-24T15:52:39;17.00;52.10
4578;DHT22;2301;47.354;8.528;2023-04-24T15:55:06;16.90;51.90
4578;DHT22;2301;47.354;8.528;2023-04-24T15:57:35;16.80;51.70
4578;DHT22;2301;47.354;8.528;2023-04-24T16:00:03;16.80;51.90
4578;DHT22;2301;47.354;8.528;2023-04-24T16:02:31;16.70;51.40
4578;DHT22;2301;47.354;8.528;2023-04-24T16:04:58;16.60;51.20
4578;DHT22;2301;47.354;8.528;2023-04-24T16:07:25;16.50;51.80
4578;DHT22;2301;47.354;8.528;2023-04-24T16:09:52;16.50;51.80